sensor_id;sensor_type;location;lat;lon;timestamp;P1;P2;P0
14880;PMS7003;7533;51.278;12.588;2023-02-28T00:04:13;25.75;20.50;11.25
14880;PMS7003;7533;51.278;12.588;2023-02-28T00:09:17;24.25;23.00;12.00
14880;PMS7003;7533;51.278;12.588;2023-02-28T00:14:20;21.00;20.00;12.00
14880;PMS7003;7533;51.278;12.588;2023-02-28T00:19:23;24.25;23.75;13.00
14880;PMS7003;7533;51.278;12.588;2023-02-28T00:24:27;23.00;19.75;11.50
14880;PMS7003;7533;51.278;12.588;2023-02-28T00:29:30;20.25;18.25;10.50
14880;PMS7003;7533;51.278;12.588;2023-02-28T00:34:33;27.75;23.25;12.00
14880;PMS7003;7533;51.278;12.588;2023-02-28T00:39:40;22.75;20.75;10.00
14880;PMS7003;7533;51.278;12.588;2023-02-28T00:44:43;21.75;19.00;9.50
14880;PMS7003;7533;51.278;12.588;2023-02-28T00:49:45;20.75;19.50;10.25
14880;PMS7003;7533;51.278;12.588;2023-02-28T00:54:49;22.75;19.25;11.75
14880;PMS7003;7533;51.278;12.588;2023-02-28T00:59:52;21.00;18.75;10.00
14880;PMS7003;7533;51.278;12.588;2023-02-28T01:04:56;22.75;18.00;10.50
14880;PMS7003;7533;51.278;12.588;2023-02-28T01:10:00;21.75;18.75;12.50
14880;PMS7003;7533;51.278;12.588;2023-02-28T01:15:03;17.75;17.75;10.25
14880;PMS7003;7533;51.278;12.588;2023-02-28T01:20:07;21.25;18.50;10.25
14880;PMS7003;7533;51.278;12.588;2023-02-28T01:25:13;24.00;18.25;10.25
14880;PMS7003;7533;51.278;12.588;2023-02-28T01:30:16;21.75;17.75;11.00
14880;PMS7003;7533;51.278;12.588;2023-02-28T01:35:21;23.00;21.25;10.25
14880;PMS7003;7533;51.278;12.588;2023-02-28T01:40:25;17.25;17.00;10.50
14880;PMS7003;7533;51.278;12.588;2023-02-28T01:45:28;20.00;18.25;11.50
14880;PMS7003;7533;51.278;12.588;2023-02-28T01:50:33;19.50;16.75;10.25
14880;PMS7003;7533;51.278;12.588;2023-02-28T01:55:40;22.00;18.75;9.75
14880;PMS7003;7533;51.278;12.588;2023-02-28T02:00:47;19.00;16.50;10.00
14880;PMS7003;7533;51.278;12.588;2023-02-28T02:05:49;22.75;16.75;10.50
14880;PMS7003;7533;51.278;12.588;2023-02-28T02:10:54;21.50;15.50;9.25
14880;PMS7003;7533;51.278;12.588;2023-02-28T02:16:01;19.50;16.50;9.75
14880;PMS7003;7533;51.278;12.588;2023-02-28T02:27:05;17.25;16.50;10.00
14880;PMS7003;7533;51.278;12.588;2023-02-28T02:32:28;17.75;16.25;9.50
14880;PMS7003;7533;51.278;12.588;2023-02-28T02:38:08;17.00;15.25;8.25
14880;PMS7003;7533;51.278;12.588;2023-02-28T02:43:16;13.50;12.50;8.00
14880;PMS7003;7533;51.278;12.588;2023-02-28T02:48:25;16.50;14.25;8.00
14880;PMS7003;7533;51.278;12.588;2023-02-28T02:53:34;18.25;16.00;8.25
14880;PMS7003;7533;51.278;12.588;2023-02-28T02:58:43;17.75;15.50;8.00
14880;PMS7003;7533;51.278;12.588;2023-02-28T03:03:47;21.33;18.00;10.00
14880;PMS7003;7533;51.278;12.588;2023-02-28T03:08:51;18.00;15.50;8.50
14880;PMS7003;7533;51.278;12.588;2023-02-28T03:19:45;19.25;15.50;8.25
14880;PMS7003;7533;51.278;12.588;2023-02-28T03:24:56;16.50;15.75;7.75
14880;PMS7003;7533;51.278;12.588;2023-02-28T03:30:09;18.00;15.25;8.50
14880;PMS7003;7533;51.278;12.588;2023-02-28T03:35:18;17.00;13.50;7.00
14880;PMS7003;7533;51.278;12.588;2023-02-28T03:40:27;13.50;12.50;7.00
14880;PMS7003;7533;51.278;12.588;2023-02-28T03:45:35;16.00;12.50;6.00
14880;PMS7003;7533;51.278;12.588;2023-02-28T03:50:41;14.50;12.50;7.00
14880;PMS7003;7533;51.278;12.588;2023-02-28T03:55:48;15.50;14.25;8.00
14880;PMS7003;7533;51.278;12.588;2023-02-28T04:00:55;17.75;15.75;9.50
14880;PMS7003;7533;51.278;12.588;2023-02-28T04:06:12;18.75;14.50;7.25
14880;PMS7003;7533;51.278;12.588;2023-02-28T04:11:21;15.50;12.50;7.50
14880;PMS7003;7533;51.278;12.588;2023-02-28T04:16:26;13.50;13.25;7.00
14880;PMS7003;7533;51.278;12.588;2023-02-28T04:21:36;15.25;14.25;7.00
14880;PMS7003;7533;51.278;12.588;2023-02-28T04:26:43;14.75;11.75;6.25
14880;PMS7003;7533;51.278;12.588;2023-02-28T04:31:47;16.25;14.25;6.00
14880;PMS7003;7533;51.278;12.588;2023-02-28T04:36:50;15.50;14.50;8.00
14880;PMS7003;7533;51.278;12.588;2023-02-28T04:42:14;13.75;11.25;5.00
14880;PMS7003;7533;51.278;12.588;2023-02-28T04:47:17;11.75;11.25;5.50
14880;PMS7003;7533;51.278;12.588;2023-02-28T04:52:20;12.00;8.25;5.00
14880;PMS7003;7533;51.278;12.588;2023-02-28T04:57:24;9.75;9.50;5.25
14880;PMS7003;7533;51.278;12.588;2023-02-28T05:02:27;11.00;10.25;5.00
14880;PMS7003;7533;51.278;12.588;2023-02-28T05:07:30;10.00;9.50;4.50
14880;PMS7003;7533;51.278;12.588;2023-02-28T05:12:34;10.75;9.00;4.00
14880;PMS7003;7533;51.278;12.588;2023-02-28T05:17:37;13.50;9.50;4.00
14880;PMS7003;7533;51.278;12.588;2023-02-28T05:22:40;9.00;7.50;4.00
14880;PMS7003;7533;51.278;12.588;2023-02-28T05:27:44;12.25;10.50;4.00
14880;PMS7003;7533;51.278;12.588;2023-02-28T05:32:49;10.75;9.00;4.75
14880;PMS7003;7533;51.278;12.588;2023-02-28T05:37:53;11.00;7.00;5.00
14880;PMS7003;7533;51.278;12.588;2023-02-28T05:42:57;10.50;7.50;3.50
14880;PMS7003;7533;51.278;12.588;2023-02-28T05:48:00;11.50;7.50;4.50
14880;PMS7003;7533;51.278;12.588;2023-02-28T05:53:03;9.50;7.00;4.00
14880;PMS7003;7533;51.278;12.588;2023-02-28T05:58:07;15.00;8.50;5.00
14880;PMS7003;7533;51.278;12.588;2023-02-28T06:03:10;12.00;10.25;4.25
14880;PMS7003;7533;51.278;12.588;2023-02-28T06:08:12;9.00;8.50;4.75
14880;PMS7003;7533;51.278;12.588;2023-02-28T06:13:17;8.25;6.75;3.00
14880;PMS7003;7533;51.278;12.588;2023-02-28T06:18:20;7.50;6.00;3.00
14880;PMS7003;7533;51.278;12.588;2023-02-28T06:23:23;7.75;7.25;4.00
14880;PMS7003;7533;51.278;12.588;2023-02-28T06:28:27;6.50;6.25;3.75
14880;PMS7003;7533;51.278;12.588;2023-02-28T06:33:30;9.00;6.75;4.25
14880;PMS7003;7533;51.278;12.588;2023-02-28T06:38:34;9.50;7.75;4.00
14880;PMS7003;7533;51.278;12.588;2023-02-28T06:43:39;8.25;7.75;4.50
14880;PMS7003;7533;51.278;12.588;2023-02-28T06:48:44;8.25;8.25;3.75
14880;PMS7003;7533;51.278;12.588;2023-02-28T06:53:48;9.25;7.00;3.75
14880;PMS7003;7533;51.278;12.588;2023-02-28T06:58:52;8.00;7.25;4.00
14880;PMS7003;7533;51.278;12.588;2023-02-28T07:03:55;6.00;6.00;3.50
14880;PMS7003;7533;51.278;12.588;2023-02-28T07:08:58;5.75;4.75;2.50
14880;PMS7003;7533;51.278;12.588;2023-02-28T07:14:03;8.25;7.50;3.25
14880;PMS7003;7533;51.278;12.588;2023-02-28T07:19:05;6.00;5.00;3.00
14880;PMS7003;7533;51.278;12.588;2023-02-28T07:24:08;5.25;5.00;3.00
14880;PMS7003;7533;51.278;12.588;2023-02-28T07:29:13;7.50;7.50;3.00
14880;PMS7003;7533;51.278;12.588;2023-02-28T07:34:15;7.25;6.50;3.00
14880;PMS7003;7533;51.278;12.588;2023-02-28T07:39:20;7.50;6.00;3.00
14880;PMS7003;7533;51.278;12.588;2023-02-28T07:44:25;5.25;4.25;2.50
14880;PMS7003;7533;51.278;12.588;2023-02-28T07:49:28;6.50;4.75;2.50
14880;PMS7003;7533;51.278;12.588;2023-02-28T07:54:31;6.75;6.75;3.25
14880;PMS7003;7533;51.278;12.588;2023-02-28T07:59:36;4.50;4.50;3.00
14880;PMS7003;7533;51.278;12.588;2023-02-28T08:04:38;13.50;10.75;6.00
14880;PMS7003;7533;51.278;12.588;2023-02-28T08:09:41;16.00;14.00;9.00
14880;PMS7003;7533;51.278;12.588;2023-02-28T08:14:46;13.50;11.50;7.00
14880;PMS7003;7533;51.278;12.588;2023-02-28T08:19:49;10.50;9.75;6.25
14880;PMS7003;7533;51.278;12.588;2023-02-28T08:24:51;13.75;9.50;6.50
14880;PMS7003;7533;51.278;12.588;2023-02-28T08:29:55;12.00;9.50;7.00
14880;PMS7003;7533;51.278;12.588;2023-02-28T08:34:58;9.00;9.00;5.75
14880;PMS7003;7533;51.278;12.588;2023-02-28T08:40:01;13.00;10.50;6.50
14880;PMS7003;7533;51.278;12.588;2023-02-28T08:45:07;9.00;7.00;5.00
14880;PMS7003;7533;51.278;12.588;2023-02-28T08:50:10;10.75;9.50;6.00
14880;PMS7003;7533;51.278;12.588;2023-02-28T08:55:16;7.50;7.00;5.00
14880;PMS7003;7533;51.278;12.588;2023-02-28T09:00:21;9.75;9.00;5.50
14880;PMS7003;7533;51.278;12.588;2023-02-28T09:05:24;7.25;6.75;4.00
14880;PMS7003;7533;51.278;12.588;2023-02-28T09:10:27;10.50;8.25;5.00
14880;PMS7003;7533;51.278;12.588;2023-02-28T09:15:31;9.75;6.75;4.25
14880;PMS7003;7533;51.278;12.588;2023-02-28T09:20:36;9.50;7.25;4.25
14880;PMS7003;7533;51.278;12.588;2023-02-28T09:25:44;7.50;7.00;4.00
14880;PMS7003;7533;51.278;12.588;2023-02-28T09:30:50;10.25;9.00;4.75
14880;PMS7003;7533;51.278;12.588;2023-02-28T09:35:57;6.75;6.75;4.00
14880;PMS7003;7533;51.278;12.588;2023-02-28T09:41:03;8.50;7.25;5.00
14880;PMS7003;7533;51.278;12.588;2023-02-28T09:46:18;7.25;7.00;4.75
14880;PMS7003;7533;51.278;12.588;2023-02-28T09:51:39;8.00;5.25;3.25
14880;PMS7003;7533;51.278;12.588;2023-02-28T09:56:49;6.75;6.00;3.75
14880;PMS7003;7533;51.278;12.588;2023-02-28T10:01:57;6.25;6.25;4.00
14880;PMS7003;7533;51.278;12.588;2023-02-28T10:07:15;8.00;6.75;3.25
14880;PMS7003;7533;51.278;12.588;2023-02-28T10:12:23;5.00;5.00;3.00
14880;PMS7003;7533;51.278;12.588;2023-02-28T10:17:34;10.25;8.25;4.75
14880;PMS7003;7533;51.278;12.588;2023-02-28T10:22:57;8.75;5.50;3.25
14880;PMS7003;7533;51.278;12.588;2023-02-28T10:28:09;8.75;6.50;4.75
14880;PMS7003;7533;51.278;12.588;2023-02-28T10:33:19;8.00;6.25;4.25
14880;PMS7003;7533;51.278;12.588;2023-02-28T10:38:26;8.00;4.75;2.25
14880;PMS7003;7533;51.278;12.588;2023-02-28T10:43:31;6.00;6.00;4.00
14880;PMS7003;7533;51.278;12.588;2023-02-28T10:48:36;6.75;6.00;3.25
14880;PMS7003;7533;51.278;12.588;2023-02-28T10:53:45;5.50;5.50;3.00
14880;PMS7003;7533;51.278;12.588;2023-02-28T10:59:01;7.00;7.00;3.00
14880;PMS7003;7533;51.278;12.588;2023-02-28T11:04:18;6.75;6.75;3.00
14880;PMS7003;7533;51.278;12.588;2023-02-28T11:09:35;8.25;6.50;3.50
14880;PMS7003;7533;51.278;12.588;2023-02-28T11:14:46;5.50;5.50;3.50
14880;PMS7003;7533;51.278;12.588;2023-02-28T11:19:54;9.00;7.00;3.00
14880;PMS7003;7533;51.278;12.588;2023-02-28T11:25:00;5.75;5.00;2.50
14880;PMS7003;7533;51.278;12.588;2023-02-28T11:30:22;7.00;5.75;3.00
14880;PMS7003;7533;51.278;12.588;2023-02-28T11:35:36;5.75;5.75;3.75
14880;PMS7003;7533;51.278;12.588;2023-02-28T11:40:43;8.00;4.25;2.50
14880;PMS7003;7533;51.278;12.588;2023-02-28T11:45:56;5.50;5.25;3.75
14880;PMS7003;7533;51.278;12.588;2023-02-28T11:51:12;4.50;4.50;2.25
14880;PMS7003;7533;51.278;12.588;2023-02-28T11:56:22;8.50;5.00;2.25
14880;PMS7003;7533;51.278;12.588;2023-02-28T12:01:37;5.50;5.50;3.00
14880;PMS7003;7533;51.278;12.588;2023-02-28T12:06:50;7.25;3.75;2.00
14880;PMS7003;7533;51.278;12.588;2023-02-28T12:12:01;6.00;3.25;2.00
14880;PMS7003;7533;51.278;12.588;2023-02-28T12:17:22;6.50;5.50;3.00
14880;PMS7003;7533;51.278;12.588;2023-02-28T12:22:38;4.00;4.00;3.00
14880;PMS7003;7533;51.278;12.588;2023-02-28T12:27:50;4.75;3.75;2.00
14880;PMS7003;7533;51.278;12.588;2023-02-28T12:32:55;4.50;4.50;3.00
14880;PMS7003;7533;51.278;12.588;2023-02-28T12:38:05;5.00;5.00;3.00
14880;PMS7003;7533;51.278;12.588;2023-02-28T12:43:16;4.00;4.00;3.00
14880;PMS7003;7533;51.278;12.588;2023-02-28T12:48:24;5.00;4.25;2.00
14880;PMS7003;7533;51.278;12.588;2023-02-28T12:53:35;4.25;4.25;2.00
14880;PMS7003;7533;51.278;12.588;2023-02-28T12:58:51;5.50;5.00;2.00
14880;PMS7003;7533;51.278;12.588;2023-02-28T13:09:36;5.25;4.25;2.00
14880;PMS7003;7533;51.278;12.588;2023-02-28T13:14:40;5.00;4.00;2.00
14880;PMS7003;7533;51.278;12.588;2023-02-28T13:19:44;3.75;3.75;1.50
14880;PMS7003;7533;51.278;12.588;2023-02-28T13:24:51;5.50;5.50;3.75
14880;PMS7003;7533;51.278;12.588;2023-02-28T13:29:55;5.00;4.00;2.75
14880;PMS7003;7533;51.278;12.588;2023-02-28T13:40:35;6.50;4.00;2.00
14880;PMS7003;7533;51.278;12.588;2023-02-28T13:45:39;5.00;5.00;3.00
14880;PMS7003;7533;51.278;12.588;2023-02-28T13:51:27;71.80;57.40;34.20
14880;PMS7003;7533;51.278;12.588;2023-02-28T13:56:45;84.00;76.00;41.40
14880;PMS7003;7533;51.278;12.588;2023-02-28T14:02:01;65.80;50.20;31.00
14880;PMS7003;7533;51.278;12.588;2023-02-28T14:07:24;74.60;64.00;36.20
14880;PMS7003;7533;51.278;12.588;2023-02-28T14:18:05;81.00;67.80;37.40
14880;PMS7003;7533;51.278;12.588;2023-02-28T14:23:21;189.40;163.80;85.80
14880;PMS7003;7533;51.278;12.588;2023-02-28T14:28:43;319.00;261.67;133.33
14880;PMS7003;7533;51.278;12.588;2023-02-28T14:33:59;152.80;129.20;67.20
14880;PMS7003;7533;51.278;12.588;2023-02-28T14:39:14;156.20;132.60;70.60
14880;PMS7003;7533;51.278;12.588;2023-02-28T14:44:20;135.20;117.40;60.60
14880;PMS7003;7533;51.278;12.588;2023-02-28T14:49:26;124.80;98.40;49.20
14880;PMS7003;7533;51.278;12.588;2023-02-28T14:54:31;107.00;94.60;52.80
14880;PMS7003;7533;51.278;12.588;2023-02-28T14:59:36;109.80;88.60;49.80
14880;PMS7003;7533;51.278;12.588;2023-02-28T15:04:39;99.60;82.00;43.40
14880;PMS7003;7533;51.278;12.588;2023-02-28T15:09:43;93.20;78.60;40.40
14880;PMS7003;7533;51.278;12.588;2023-02-28T15:14:47;37.60;31.40;19.60
14880;PMS7003;7533;51.278;12.588;2023-02-28T15:19:52;25.00;22.25;14.50
14880;PMS7003;7533;51.278;12.588;2023-02-28T15:24:57;28.60;24.80;17.00
14880;PMS7003;7533;51.278;12.588;2023-02-28T15:30:04;26.40;24.00;16.00
14880;PMS7003;7533;51.278;12.588;2023-02-28T15:35:18;27.60;23.80;14.60
14880;PMS7003;7533;51.278;12.588;2023-02-28T15:40:29;24.50;21.75;14.50
14880;PMS7003;7533;51.278;12.588;2023-02-28T15:45:40;21.40;21.00;14.00
14880;PMS7003;7533;51.278;12.588;2023-02-28T15:50:47;27.80;22.60;15.00
14880;PMS7003;7533;51.278;12.588;2023-02-28T15:56:00;22.80;20.80;13.60
14880;PMS7003;7533;51.278;12.588;2023-02-28T16:01:07;27.80;26.00;15.60
14880;PMS7003;7533;51.278;12.588;2023-02-28T16:06:30;23.20;21.60;15.80
14880;PMS7003;7533;51.278;12.588;2023-02-28T16:11:38;25.00;22.80;16.00
14880;PMS7003;7533;51.278;12.588;2023-02-28T16:16:45;25.60;23.20;15.00
14880;PMS7003;7533;51.278;12.588;2023-02-28T16:21:50;21.00;20.00;14.00
14880;PMS7003;7533;51.278;12.588;2023-02-28T16:26:53;26.00;21.50;14.25
14880;PMS7003;7533;51.278;12.588;2023-02-28T16:32:00;26.40;24.80;15.60
14880;PMS7003;7533;51.278;12.588;2023-02-28T16:37:09;21.00;18.75;12.00
14880;PMS7003;7533;51.278;12.588;2023-02-28T16:42:15;25.25;18.75;12.00
14880;PMS7003;7533;51.278;12.588;2023-02-28T16:47:24;23.25;20.50;13.50
14880;PMS7003;7533;51.278;12.588;2023-02-28T16:52:28;21.75;17.50;12.00
14880;PMS7003;7533;51.278;12.588;2023-02-28T16:57:30;22.25;19.00;12.50
14880;PMS7003;7533;51.278;12.588;2023-02-28T17:02:35;18.00;16.25;11.50
14880;PMS7003;7533;51.278;12.588;2023-02-28T17:07:41;21.75;20.25;11.50
14880;PMS7003;7533;51.278;12.588;2023-02-28T17:12:45;18.75;17.75;11.00
14880;PMS7003;7533;51.278;12.588;2023-02-28T17:17:49;23.50;21.25;12.00
14880;PMS7003;7533;51.278;12.588;2023-02-28T17:22:52;21.25;15.50;11.25
14880;PMS7003;7533;51.278;12.588;2023-02-28T17:27:55;21.25;16.75;8.75
14880;PMS7003;7533;51.278;12.588;2023-02-28T17:33:00;18.75;17.00;11.25
14880;PMS7003;7533;51.278;12.588;2023-02-28T17:38:03;16.50;14.75;9.50
14880;PMS7003;7533;51.278;12.588;2023-02-28T17:43:06;18.25;17.00;10.75
14880;PMS7003;7533;51.278;12.588;2023-02-28T17:48:10;19.50;14.50;9.00
14880;PMS7003;7533;51.278;12.588;2023-02-28T17:53:14;19.25;17.25;10.75
14880;PMS7003;7533;51.278;12.588;2023-02-28T17:58:17;18.75;17.00;11.00
14880;PMS7003;7533;51.278;12.588;2023-02-28T18:03:22;18.75;16.00;11.00
14880;PMS7003;7533;51.278;12.588;2023-02-28T18:08:25;20.50;17.25;10.75
14880;PMS7003;7533;51.278;12.588;2023-02-28T18:13:28;20.00;16.25;11.50
14880;PMS7003;7533;51.278;12.588;2023-02-28T18:18:33;16.75;15.50;9.00
14880;PMS7003;7533;51.278;12.588;2023-02-28T18:23:38;21.00;18.50;11.50
14880;PMS7003;7533;51.278;12.588;2023-02-28T18:28:47;21.25;18.00;11.00
14880;PMS7003;7533;51.278;12.588;2023-02-28T18:33:52;15.50;15.50;11.00
14880;PMS7003;7533;51.278;12.588;2023-02-28T18:38:55;18.25;17.25;10.75
14880;PMS7003;7533;51.278;12.588;2023-02-28T18:43:59;19.40;18.40;11.80
14880;PMS7003;7533;51.278;12.588;2023-02-28T18:49:20;15.75;15.75;10.75
14880;PMS7003;7533;51.278;12.588;2023-02-28T18:54:23;20.50;18.00;11.25
14880;PMS7003;7533;51.278;12.588;2023-02-28T18:59:26;19.75;19.50;11.50
14880;PMS7003;7533;51.278;12.588;2023-02-28T19:04:30;18.75;18.00;13.00
14880;PMS7003;7533;51.278;12.588;2023-02-28T19:09:33;19.75;18.75;13.00
14880;PMS7003;7533;51.278;12.588;2023-02-28T19:14:37;19.25;16.25;11.25
14880;PMS7003;7533;51.278;12.588;2023-02-28T19:19:41;23.00;21.75;12.00
14880;PMS7003;7533;51.278;12.588;2023-02-28T19:24:44;19.25;18.00;11.00
14880;PMS7003;7533;51.278;12.588;2023-02-28T19:29:47;18.25;17.75;10.25
14880;PMS7003;7533;51.278;12.588;2023-02-28T19:34:52;15.25;14.50;9.75
14880;PMS7003;7533;51.278;12.588;2023-02-28T19:39:55;18.50;16.25;10.50
14880;PMS7003;7533;51.278;12.588;2023-02-28T19:44:59;18.25;16.25;11.00
14880;PMS7003;7533;51.278;12.588;2023-02-28T19:50:03;20.50;17.25;12.50
14880;PMS7003;7533;51.278;12.588;2023-02-28T19:55:07;20.00;18.25;11.75
14880;PMS7003;7533;51.278;12.588;2023-02-28T20:00:12;15.50;15.25;11.75
14880;PMS7003;7533;51.278;12.588;2023-02-28T20:05:18;22.50;19.75;11.75
14880;PMS7003;7533;51.278;12.588;2023-02-28T20:10:21;20.00;16.75;11.75
14880;PMS7003;7533;51.278;12.588;2023-02-28T20:15:24;22.00;19.25;11.75
14880;PMS7003;7533;51.278;12.588;2023-02-28T20:20:30;18.75;16.00;10.75
14880;PMS7003;7533;51.278;12.588;2023-02-28T20:25:37;15.75;14.50;10.50
14880;PMS7003;7533;51.278;12.588;2023-02-28T20:30:41;21.25;17.50;11.25
14880;PMS7003;7533;51.278;12.588;2023-02-28T20:35:45;15.75;15.25;10.25
14880;PMS7003;7533;51.278;12.588;2023-02-28T20:40:52;15.25;15.25;11.00
14880;PMS7003;7533;51.278;12.588;2023-02-28T20:45:56;19.75;17.25;12.00
14880;PMS7003;7533;51.278;12.588;2023-02-28T20:51:03;18.50;17.00;11.50
14880;PMS7003;7533;51.278;12.588;2023-02-28T20:56:09;19.75;16.00;11.00
14880;PMS7003;7533;51.278;12.588;2023-02-28T21:01:15;21.00;16.00;10.00
14880;PMS7003;7533;51.278;12.588;2023-02-28T21:06:22;16.25;14.50;10.50
14880;PMS7003;7533;51.278;12.588;2023-02-28T21:11:27;18.25;16.50;11.25
14880;PMS7003;7533;51.278;12.588;2023-02-28T21:16:31;20.75;16.00;9.75
14880;PMS7003;7533;51.278;12.588;2023-02-28T21:21:40;17.50;16.00;9.75
14880;PMS7003;7533;51.278;12.588;2023-02-28T21:26:44;19.75;17.25;11.75
14880;PMS7003;7533;51.278;12.588;2023-02-28T21:31:48;15.25;15.25;10.00
14880;PMS7003;7533;51.278;12.588;2023-02-28T21:36:53;16.00;15.25;10.75
14880;PMS7003;7533;51.278;12.588;2023-02-28T21:41:57;17.00;16.25;10.50
14880;PMS7003;7533;51.278;12.588;2023-02-28T21:47:04;15.75;14.25;9.00
14880;PMS7003;7533;51.278;12.588;2023-02-28T21:52:08;15.75;15.75;10.00
14880;PMS7003;7533;51.278;12.588;2023-02-28T21:57:11;12.50;12.50;8.00
14880;PMS7003;7533;51.278;12.588;2023-02-28T22:02:16;13.75;13.75;9.25
14880;PMS7003;7533;51.278;12.588;2023-02-28T22:07:20;14.50;11.00;8.75
14880;PMS7003;7533;51.278;12.588;2023-02-28T22:12:23;14.00;14.00;9.75
14880;PMS7003;7533;51.278;12.588;2023-02-28T22:17:26;16.25;14.00;9.00
14880;PMS7003;7533;51.278;12.588;2023-02-28T22:22:31;13.25;11.75;7.75
14880;PMS7003;7533;51.278;12.588;2023-02-28T22:27:33;17.50;14.25;8.25
14880;PMS7003;7533;51.278;12.588;2023-02-28T22:32:36;14.25;12.75;8.50
14880;PMS7003;7533;51.278;12.588;2023-02-28T22:37:40;14.25;12.25;9.00
14880;PMS7003;7533;51.278;12.588;2023-02-28T22:42:43;13.25;13.25;8.25
14880;PMS7003;7533;51.278;12.588;2023-02-28T22:47:46;11.75;11.00;8.00
14880;PMS7003;7533;51.278;12.588;2023-02-28T22:52:51;13.50;12.50;7.75
14880;PMS7003;7533;51.278;12.588;2023-02-28T22:57:54;14.50;14.50;9.75
14880;PMS7003;7533;51.278;12.588;2023-02-28T23:02:57;14.75;11.75;7.75
14880;PMS7003;7533;51.278;12.588;2023-02-28T23:08:01;14.00;12.50;7.75
14880;PMS7003;7533;51.278;12.588;2023-02-28T23:13:03;15.25;13.75;9.75
14880;PMS7003;7533;51.278;12.588;2023-02-28T23:18:06;15.00;13.25;7.75
14880;PMS7003;7533;51.278;12.588;2023-02-28T23:23:10;13.00;11.50;8.00
14880;PMS7003;7533;51.278;12.588;2023-02-28T23:28:14;13.75;12.50;8.25
14880;PMS7003;7533;51.278;12.588;2023-02-28T23:33:16;12.75;12.75;8.00
14880;PMS7003;7533;51.278;12.588;2023-02-28T23:38:21;11.00;11.00;7.00
14880;PMS7003;7533;51.278;12.588;2023-02-28T23:43:24;13.50;12.50;7.75
14880;PMS7003;7533;51.278;12.588;2023-02-28T23:48:27;14.00;13.00;8.00
14880;PMS7003;7533;51.278;12.588;2023-02-28T23:53:31;12.00;11.75;7.00
14880;PMS7003;7533;51.278;12.588;2023-02-28T23:58:34;13.25;11.00;7.25
